createdAt,value
2023-04-05T00:01:10.691Z,-1.82
2023-04-05T00:11:02.080Z,-2.03
2023-04-05T00:21:02.098Z,-2.21
2023-04-05T00:31:02.107Z,-2.34
2023-04-05T00:41:02.107Z,-2.6
2023-04-05T00:51:02.130Z,-2.74
2023-04-05T01:01:02.134Z,-2.9
2023-04-05T01:11:02.106Z,-2.78
2023-04-05T01:21:02.120Z,-3
2023-04-05T01:31:02.213Z,-3.06
2023-04-05T01:41:02.138Z,-3.21
2023-04-05T01:51:02.158Z,-3.25
2023-04-05T02:01:02.199Z,-3.46
2023-04-05T02:11:02.184Z,-3.6
2023-04-05T02:21:02.194Z,-3.66
2023-04-05T02:31:02.206Z,-3.69
2023-04-05T02:41:02.191Z,-3.69
2023-04-05T02:51:02.221Z,-3.81
2023-04-05T03:01:02.278Z,-3.98
2023-04-05T03:11:02.237Z,-4.18
2023-04-05T03:21:02.244Z,-4.48
2023-04-05T03:31:02.320Z,-4.37
2023-04-05T03:41:02.287Z,-4.2
2023-04-05T03:51:02.258Z,-4.21
2023-04-05T04:01:02.267Z,-4.41
2023-04-05T04:11:02.296Z,-4.47
2023-04-05T04:21:02.280Z,-4.61
2023-04-05T04:31:02.302Z,-4.53
2023-04-05T04:41:02.313Z,-4.44
2023-04-05T04:51:02.346Z,-4.53
2023-04-05T05:01:02.346Z,-4.41
2023-04-05T05:11:02.324Z,-4.2
2023-04-05T05:21:02.598Z,-4.02
2023-04-05T05:31:02.620Z,-3.75
2023-04-05T05:41:02.348Z,-3.35
2023-04-05T05:51:02.398Z,-3.07
2023-04-05T06:01:02.411Z,-2.7
2023-04-05T06:11:02.410Z,-2.29
2023-04-05T06:21:02.420Z,-1.81
2023-04-05T06:31:02.415Z,-1.16
2023-04-05T06:41:02.523Z,0.87
2023-04-05T06:51:02.493Z,2.57
2023-04-05T07:01:02.454Z,2.85
2023-04-05T07:11:02.430Z,3.11
2023-04-05T07:21:02.442Z,3.44
2023-04-05T07:31:02.403Z,3.75
2023-04-05T07:41:02.439Z,4.19
2023-04-05T07:51:02.496Z,4.38
2023-04-05T08:01:02.454Z,4.59
2023-04-05T08:11:02.432Z,5.02
2023-04-05T08:21:02.379Z,5.63
2023-04-05T08:31:02.401Z,5.88
2023-04-05T08:41:02.423Z,6.04
2023-04-05T08:51:02.499Z,6.21
2023-04-05T09:01:02.445Z,6.92
2023-04-05T09:11:02.385Z,7.22
2023-04-05T09:21:02.370Z,7.37
2023-04-05T09:31:02.404Z,7.71
2023-04-05T09:41:02.379Z,8.27
2023-04-05T09:51:10.247Z,7.48
2023-04-05T10:01:13.696Z,7.96
2023-04-05T10:11:02.344Z,8.25
2023-04-05T10:21:02.426Z,8.44
2023-04-05T10:31:02.372Z,8.94
2023-04-05T10:41:02.375Z,8.57
2023-04-05T10:51:02.425Z,9.26
2023-04-05T11:01:02.346Z,9.78
2023-04-05T11:11:02.347Z,9.7
2023-04-05T11:21:02.339Z,9.76
2023-04-05T11:31:02.384Z,10.19
2023-04-05T11:41:02.346Z,10.15
2023-04-05T11:51:02.313Z,10.45
2023-04-05T12:01:02.282Z,10.75
2023-04-05T12:11:02.330Z,10.89
2023-04-05T12:21:03.672Z,10.35
2023-04-05T12:31:02.408Z,10.62
2023-04-05T12:41:02.248Z,10.76
2023-04-05T12:51:02.252Z,10.83
2023-04-05T13:01:02.266Z,10.63
2023-04-05T13:11:02.261Z,10.42
2023-04-05T13:21:02.253Z,10.5
2023-04-05T13:31:02.222Z,9.92
2023-04-05T13:41:02.292Z,9.81
2023-04-05T13:51:02.227Z,9.79
2023-04-05T14:01:02.221Z,9.79
2023-04-05T14:11:02.228Z,9.75
2023-04-05T14:21:02.256Z,9.78
2023-04-05T14:31:02.196Z,9.93
2023-04-05T14:41:02.248Z,9.83
2023-04-05T14:51:02.206Z,9.94
2023-04-05T15:01:02.184Z,9.8
2023-04-05T15:11:02.147Z,9.87
2023-04-05T15:21:02.154Z,9.82
2023-04-05T15:31:02.168Z,9.61
2023-04-05T15:41:02.160Z,9.61
2023-04-05T15:51:02.125Z,9.49
2023-04-05T16:01:02.185Z,9.52
2023-04-05T16:11:02.124Z,9.38
2023-04-05T16:21:02.105Z,9.99
2023-04-05T16:31:02.179Z,9.99
2023-04-05T16:41:02.112Z,9.4
2023-04-05T16:51:02.100Z,9.1
2023-04-05T17:01:02.096Z,8.71
2023-04-05T17:11:02.116Z,8.17
2023-04-05T17:21:02.083Z,7.79
2023-04-05T17:31:02.158Z,7.49
2023-04-05T17:41:02.100Z,7.19
2023-04-05T17:51:02.069Z,6.87
2023-04-05T18:01:02.088Z,6.62
2023-04-05T18:11:02.101Z,6.28
2023-04-05T18:21:02.059Z,5.95
2023-04-05T18:31:02.087Z,5.65
2023-04-05T18:41:02.078Z,5.37
2023-04-05T18:51:02.036Z,5.05
2023-04-05T19:01:02.083Z,4.89
2023-04-05T19:11:02.071Z,4.81
2023-04-05T19:21:02.054Z,4.59
2023-04-05T19:31:02.078Z,4.48
2023-04-05T19:41:02.117Z,4.36
2023-04-05T19:51:02.102Z,4.04
2023-04-05T20:01:02.068Z,3.93
2023-04-05T20:11:02.097Z,3.69
2023-04-05T20:21:02.083Z,3.15
2023-04-05T20:31:02.103Z,2.43
2023-04-05T20:41:02.048Z,1.83
2023-04-05T20:51:02.088Z,1.33
2023-04-05T21:01:02.071Z,0.95
2023-04-05T21:11:02.076Z,0.89
2023-04-05T21:21:02.118Z,0.77
2023-04-05T21:31:02.097Z,0.61
2023-04-05T21:41:02.106Z,0.58
2023-04-05T21:51:02.134Z,0.39
2023-04-05T22:01:02.104Z,0.11
2023-04-05T22:11:02.115Z,0.15
2023-04-05T22:21:02.099Z,-0.02
2023-04-05T22:31:02.097Z,-0.18
2023-04-05T22:41:02.139Z,-0.31
2023-04-05T22:51:02.180Z,-0.65
2023-04-05T23:01:02.130Z,-0.93
2023-04-05T23:11:02.131Z,-0.99
2023-04-05T23:21:02.167Z,-0.88
2023-04-05T23:31:02.150Z,-1
2023-04-05T23:41:02.149Z,-1.12
2023-04-05T23:51:02.141Z,-1.16
